»·PEaware :: N3TA KLMT-KUAO

N3TA :: KLMT-KUAO

FLIGHT INFORMATION

Flight Status: Arrived
Operator: Privately registered:
United States
More flights under this callsign
Pilot: Oliver L. (19934)
Aircraft: PILATUS PC-12 EAGLE
(PC12)
More flights by this aircraft type
Origin: KLMT Klamath Falls Intl
United States
Destination: KUAO Aurora State
United States
More flights between these airports :: More routes between these airports
Route: LMT6 EUG V23 RAWER
File this flight plan on PilotEdge
Remarks:
Altitude:
(Current/Filed)
12,000ft
Speed:
(Current/Filed)
270kts
Departed: 27-Jan-19 06:30 PM
Arrived: 27-Jan-19 07:37 PM
Distance/Time
Traveled:
191nm/1:07
Distance/Time
To Go:
Arrived

Flight Plot

Page will automatically refresh every two minutes.

Flight plan parsing failed; only flown route is shown


Map Options




Map Legend


Flown Route
Filed Route
Departure Airport
Arrival Airport
Navaid (VOR, NDB)
Fix

Horizontal Profiles

Position Reports

Time Latitude Longitude Heading Altitude Ground
Speed
27-Jan-19 18:17 42.163738 -121.743367 359 4099ft 0kts
27-Jan-19 18:18 42.163738 -121.743367 359 4099ft 0kts
27-Jan-19 18:19 42.163738 -121.743367 359 4099ft 0kts
27-Jan-19 18:20 42.163738 -121.743367 359 4099ft 0kts
27-Jan-19 18:21 42.163738 -121.743367 359 4099ft 0kts
27-Jan-19 18:22 42.163738 -121.743367 359 4099ft 0kts
27-Jan-19 18:23 42.163738 -121.743367 359 4099ft 0kts
27-Jan-19 18:24 42.163779 -121.743364 5 4099ft 3kts
27-Jan-19 18:25 42.168005 -121.740842 65 4099ft 10kts
27-Jan-19 18:26 42.168024 -121.740787 63 4099ft 0kts
27-Jan-19 18:27 42.168024 -121.740787 63 4099ft 0kts
27-Jan-19 18:28 42.168025 -121.740785 64 4099ft 0kts
27-Jan-19 18:29 42.153848 -121.732089 158 4195ft 129kts
27-Jan-19 18:30 42.116654 -121.708828 154 5620ft 168kts
27-Jan-19 18:31 42.071017 -121.680083 154 7147ft 191kts
27-Jan-19 18:32 42.021534 -121.649116 154 8663ft 200kts
27-Jan-19 18:33 41.970315 -121.617243 154 10176ft 206kts
27-Jan-19 18:34 41.918012 -121.584916 154 11687ft 209kts
27-Jan-19 18:35 41.861444 -121.550120 154 12064ft 242kts
27-Jan-19 18:36 41.798090 -121.511107 154 12062ft 255kts
27-Jan-19 18:37 41.741746 -121.529440 265 12068ft 248kts
27-Jan-19 18:38 41.786350 -121.588623 332 12062ft 243kts
27-Jan-19 18:39 41.846866 -121.629785 333 12061ft 244kts
27-Jan-19 18:40 41.907530 -121.670628 333 12061ft 244kts
27-Jan-19 18:41 41.968474 -121.711721 333 12061ft 245kts
27-Jan-19 18:42 42.029533 -121.753007 333 12062ft 251kts
27-Jan-19 18:43 42.091986 -121.795273 333 12060ft 251kts
27-Jan-19 18:44 42.154280 -121.837554 333 12063ft 251kts
27-Jan-19 18:45 42.216804 -121.880083 333 12063ft 251kts
27-Jan-19 18:46 42.279157 -121.922591 333 12063ft 251kts
27-Jan-19 18:47 42.341569 -121.965234 333 12063ft 251kts
27-Jan-19 18:48 42.403931 -122.007938 333 12062ft 251kts
27-Jan-19 18:49 42.466328 -122.050763 333 12062ft 251kts
27-Jan-19 18:50 42.528734 -122.093690 333 12062ft 251kts
27-Jan-19 18:51 42.590920 -122.136562 333 12062ft 251kts
27-Jan-19 18:52 42.653221 -122.179611 333 12060ft 251kts
27-Jan-19 18:53 42.715394 -122.222668 333 12055ft 251kts
27-Jan-19 18:54 42.777683 -122.265904 333 12050ft 251kts
27-Jan-19 18:55 42.839812 -122.309128 333 12044ft 251kts
27-Jan-19 18:56 42.899024 -122.350414 333 12039ft 252kts
27-Jan-19 18:57 42.961308 -122.393924 333 12033ft 251kts
27-Jan-19 18:58 43.023389 -122.437403 333 12032ft 250kts
27-Jan-19 18:59 43.085020 -122.480681 333 12033ft 249kts
27-Jan-19 19:00 43.146510 -122.523947 333 11982ft 251kts
27-Jan-19 19:01 43.208485 -122.567648 333 11974ft 249kts
27-Jan-19 19:02 43.270168 -122.611248 333 11978ft 249kts
27-Jan-19 19:03 43.331839 -122.654942 332 11980ft 249kts
27-Jan-19 19:04 43.393559 -122.698768 332 11981ft 249kts
27-Jan-19 19:05 43.455104 -122.742569 332 11980ft 249kts
27-Jan-19 19:06 43.516715 -122.786520 332 11980ft 249kts
27-Jan-19 19:07 43.578157 -122.830453 332 11997ft 248kts
27-Jan-19 19:08 43.639380 -122.874332 332 12017ft 248kts
27-Jan-19 19:09 43.700484 -122.918220 332 12034ft 247kts
27-Jan-19 19:10 43.761553 -122.962189 332 12034ft 248kts
27-Jan-19 19:11 43.822752 -123.006353 332 12034ft 248kts
27-Jan-19 19:12 43.884335 -123.050930 332 12034ft 251kts
27-Jan-19 19:13 43.946515 -123.095995 332 12033ft 252kts
27-Jan-19 19:14 44.008591 -123.141105 332 12033ft 252kts
27-Jan-19 19:15 44.070896 -123.186492 332 12033ft 252kts
27-Jan-19 19:16 44.135591 -123.214035 8 12037ft 253kts
27-Jan-19 19:17 44.204196 -123.191404 13 12035ft 254kts
27-Jan-19 19:18 44.272426 -123.165724 13 12035ft 254kts
27-Jan-19 19:19 44.340597 -123.139867 13 12035ft 254kts
27-Jan-19 19:20 44.408746 -123.113944 13 12035ft 254kts
27-Jan-19 19:21 44.476813 -123.087984 13 12035ft 254kts
27-Jan-19 19:22 44.544985 -123.061946 13 12033ft 253kts
27-Jan-19 19:23 44.612990 -123.035909 13 12030ft 253kts
27-Jan-19 19:24 44.681105 -123.010080 12 12024ft 253kts
27-Jan-19 19:25 44.749409 -122.985886 12 12019ft 253kts
27-Jan-19 19:26 44.818242 -122.960600 15 10623ft 254kts
27-Jan-19 19:27 44.881569 -122.933845 15 8379ft 226kts
27-Jan-19 19:28 44.938409 -122.902763 33 5606ft 223kts
27-Jan-19 19:29 44.987973 -122.853270 34 3723ft 212kts
27-Jan-19 19:30 45.036236 -122.808613 14 3563ft 201kts
27-Jan-19 19:31 45.088636 -122.798083 6 2485ft 161kts
27-Jan-19 19:32 45.133274 -122.790233 7 1709ft 145kts
27-Jan-19 19:33 45.168589 -122.784025 6 1435ft 145kts
27-Jan-19 19:34 45.204017 -122.777686 6 860ft 109kts
27-Jan-19 19:35 45.235391 -122.772124 6 476ft 112kts
27-Jan-19 19:36 45.253866 -122.768402 97 204ft 7kts
27-Jan-19 19:37 45.252103 -122.767971 185 204ft 7kts
27-Jan-19 19:38 45.250717 -122.767500 186 204ft 0kts

Navigation Log

Ident Type
Flight plan parsing failed, navigation log unavailable